Time;durP1;ratioP1;P1;durP2;ratioP2;P2;SDS_P1;SDS_P2;PMS_P1;PMS_P2;Temp;Humidity;BMP_temperature;BMP_pressure;BME280_temperature;BME280_humidity;BME280_pressure;Samples;Min_cycle;Max_cycle;Signal;HPM_P1;HPM_P2
2022/06/05 00:02:10;;;;;;;;;15.75;15.00;;;;;26.10;46.38;100931.97;146616;564;46021;-75
2022/06/05 00:05:26;;;;;;;;;12.00;11.00;;;;;26.11;46.01;100933.75;146615;695;46016;-73
2022/06/05 00:08:54;;;;;;;;;13.25;12.25;;;;;26.10;46.03;100926.66;146621;567;46011;-82
2022/06/05 00:11:56;;;;;;;;;16.25;14.00;;;;;26.08;46.39;100925.81;146615;612;46012;-74
2022/06/05 00:14:49;;;;;;;;;13.00;11.00;;;;;25.13;46.12;100769.91;146620;587;46020;-73
2022/06/05 00:17:41;;;;;;;;;12.75;12.25;;;;;25.98;46.26;100925.00;146617;579;46012;-76
2022/06/05 00:20:33;;;;;;;;;14.25;12.50;;;;;25.92;46.48;100927.72;146621;628;46010;-75
2022/06/05 00:23:26;;;;;;;;;16.00;14.50;;;;;25.90;46.41;100933.94;146612;587;46017;-73
2022/06/05 00:26:52;;;;;;;;;16.50;14.50;;;;;25.92;46.22;100938.34;146616;622;46020;-76
2022/06/05 00:30:09;;;;;;;;;16.00;14.75;;;;;26.01;45.88;100932.94;146611;594;46914;-73
2022/06/05 00:33:33;;;;;;;;;15.50;15.25;;;;;26.10;45.84;100929.31;146619;659;46020;-76
2022/06/05 00:36:54;;;;;;;;;17.00;14.75;;;;;26.12;45.00;100929.31;146616;570;46914;-73
2022/06/05 00:40:31;;;;;;;;;17.75;17.00;;;;;26.07;45.52;100917.81;146619;627;46010;-73
2022/06/05 00:43:28;;;;;;;;;14.00;13.50;;;;;26.09;45.89;100926.69;146618;587;46012;-73
2022/06/05 00:46:20;;;;;;;;;16.75;16.50;;;;;25.98;45.86;100916.13;146617;574;46021;-72
2022/06/05 00:49:14;;;;;;;;;17.75;14.25;;;;;25.88;46.19;100915.34;146617;582;46012;-73
2022/06/05 00:52:08;;;;;;;;;15.50;14.50;;;;;25.84;46.40;100918.06;146621;603;46010;-74
2022/06/05 00:55:00;;;;;;;;;15.25;13.25;;;;;25.84;46.08;100915.37;146611;577;46016;-73
2022/06/05 00:57:53;;;;;;;;;18.75;13.75;;;;;25.85;46.30;100920.69;146620;580;46020;-72
2022/06/05 01:00:52;;;;;;;;;13.50;13.50;;;;;25.82;46.28;100923.34;146616;569;46916;-74
2022/06/05 01:03:43;;;;;;;;;13.75;12.00;;;;;25.73;46.63;100919.00;146619;672;47010;-73
2022/06/05 01:06:36;;;;;;;;;14.00;11.75;;;;;25.60;46.98;100919.97;146619;615;46015;-75
2022/06/05 01:09:28;;;;;;;;;13.50;12.00;;;;;25.44;47.76;100918.31;146620;633;45029;-72
2022/06/05 01:12:48;;;;;;;;;10.50;10.50;;;;;25.27;47.29;100918.44;146615;626;46012;-73
2022/06/05 01:16:23;;;;;;;;;13.50;12.75;;;;;25.15;47.81;100919.38;146620;651;46020;-73
2022/06/05 01:19:33;;;;;;;;;13.25;12.00;;;;;25.03;47.90;100914.97;146614;571;46916;-70
2022/06/05 01:23:06;;;;;;;;;13.00;12.50;;;;;24.98;47.72;100918.53;146620;678;46020;-72
2022/06/05 01:26:34;;;;;;;;;13.75;13.00;;;;;24.92;47.84;100906.19;146619;603;46012;-72
2022/06/05 01:30:02;;;;;;;;;12.50;12.00;;;;;24.86;48.12;100907.13;146618;634;46020;-76
2022/06/05 01:33:12;;;;;;;;;12.50;11.75;;;;;24.86;48.21;100911.56;146616;604;46016;-75
2022/06/05 01:36:17;;;;;;;;;11.25;11.00;;;;;24.87;47.97;100914.19;146619;570;46020;-73
2022/06/05 01:39:25;;;;;;;;;13.00;12.00;;;;;24.88;47.61;100907.97;146616;688;46012;-71
2022/06/05 01:42:29;;;;;;;;;15.75;15.00;;;;;24.91;47.83;100908.84;146617;640;46020;-73
2022/06/05 01:45:48;;;;;;;;;15.75;15.25;;;;;24.94;47.93;100916.81;146618;566;46013;-80
2022/06/05 01:49:09;;;;;;;;;13.50;12.00;;;;;22.98;47.93;100580.13;146620;580;46020;-75
2022/06/05 01:52:39;;;;;;;;;13.75;13.75;;;;;24.92;48.42;100910.59;146612;599;46017;-73
2022/06/05 01:55:54;;;;;;;;;15.00;13.00;;;;;24.84;48.47;100919.50;146621;620;46020;-78
2022/06/05 01:58:58;;;;;;;;;12.00;11.25;;;;;24.80;48.72;100907.16;146615;564;46037;-75
2022/06/05 02:01:57;;;;;;;;;17.75;15.75;;;;;24.79;48.70;100918.63;146621;635;45020;-74
2022/06/05 02:04:59;;;;;;;;;21.00;17.25;;;;;24.80;49.11;100915.09;146616;602;46012;-71
2022/06/05 02:08:00;;;;;;;;;15.75;13.75;;;;;24.81;48.99;100915.97;146621;583;46020;-74
2022/06/05 02:11:16;;;;;;;;;17.50;15.25;;;;;24.84;48.05;100919.50;146616;693;46012;-75
2022/06/05 02:14:13;;;;;;;;;14.75;13.50;;;;;24.85;49.03;100907.13;146618;581;46021;-73
2022/06/05 02:17:07;;;;;;;;;14.50;14.00;;;;;24.86;49.44;100908.91;146617;621;46012;-76
2022/06/05 02:19:59;;;;;;;;;16.25;13.50;;;;;24.83;49.58;100920.41;146619;707;46010;-76
2022/06/05 02:22:54;;;;;;;;;14.00;11.75;;;;;24.78;49.59;100911.56;146618;578;46012;-73
2022/06/05 02:25:46;;;;;;;;;18.00;14.25;;;;;24.77;49.33;100908.94;146619;575;46020;-74
2022/06/05 02:28:40;;;;;;;;;14.75;13.75;;;;;24.79;49.44;100912.44;146615;596;46014;-72
2022/06/05 02:32:12;;;;;;;;;15.50;14.50;;;;;24.79;48.48;100904.47;146619;624;46020;-72
2022/06/05 02:35:40;;;;;;;;;18.00;13.25;;;;;23.87;49.10;100753.75;146615;572;46015;-73
2022/06/05 02:39:03;;;;;;;;;15.75;14.25;;;;;24.71;49.06;100914.25;146620;628;46020;-72
2022/06/05 02:42:42;;;;;;;;;15.00;13.50;;;;;24.48;50.11;100896.62;146614;640;47012;-77
2022/06/05 02:46:22;;;;;;;;;14.00;12.50;;;;;24.55;48.95;100922.25;146622;640;46010;-73
2022/06/05 02:49:28;;;;;;;;;14.50;14.50;;;;;24.49;49.63;100924.94;146610;580;46016;-75
2022/06/05 02:52:20;;;;;;;;;15.00;12.50;;;;;24.45;50.23;100935.53;146619;634;45021;-77
2022/06/05 02:55:21;;;;;;;;;16.75;13.75;;;;;24.39;50.15;100924.03;146617;602;46012;-77
2022/06/05 02:58:15;;;;;;;;;16.25;16.00;;;;;24.37;50.46;100925.81;146620;591;46011;-76
2022/06/05 03:04:18;;;;;;;;;14.75;13.00;;;;;24.42;50.30;100939.06;146616;615;46020;-68
2022/06/05 03:07:10;;;;;;;;;15.50;12.75;;;;;24.48;50.56;100949.66;146616;597;46012;-73
2022/06/05 03:10:02;;;;;;;;;16.75;15.50;;;;;24.48;50.44;100957.59;146618;571;46020;-71
2022/06/05 03:12:55;;;;;;;;;16.00;14.75;;;;;24.38;50.79;100951.41;146615;607;46013;-71
2022/06/05 03:15:47;;;;;;;;;16.00;14.25;;;;;24.35;52.26;100945.25;146623;579;45020;-71
2022/06/05 03:18:39;;;;;;;;;16.25;14.50;;;;;24.25;52.56;100954.97;146614;629;46916;-75
2022/06/05 03:21:35;;;;;;;;;20.00;16.75;;;;;24.19;51.62;100947.03;146619;626;46010;-73
2022/06/05 03:24:27;;;;;;;;;19.00;15.25;;;;;24.18;52.17;100947.94;146615;565;45916;-70
2022/06/05 03:27:19;;;;;;;;;17.75;16.75;;;;;24.19;52.60;100944.38;146619;565;46021;-71
2022/06/05 03:30:12;;;;;;;;;14.75;14.00;;;;;24.19;52.54;100947.03;146615;582;47014;-70
2022/06/05 03:33:04;;;;;;;;;16.00;16.00;;;;;24.18;52.17;100939.97;146619;564;46010;-70
2022/06/05 03:35:56;;;;;;;;;17.50;17.50;;;;;24.21;52.22;100945.28;146616;582;46012;-69
2022/06/05 03:38:49;;;;;;;;;17.25;14.75;;;;;24.27;52.62;100947.91;146619;594;46020;-70
2022/06/05 03:41:41;;;;;;;;;16.00;16.00;;;;;24.29;52.06;100953.19;146617;684;46014;-70
2022/06/05 03:44:33;;;;;;;;;19.25;14.75;;;;;24.29;51.91;100959.37;146619;625;46020;-72
2022/06/05 03:47:26;;;;;;;;;16.50;15.00;;;;;24.33;52.81;100960.25;146618;692;46012;-70
2022/06/05 03:50:19;;;;;;;;;14.50;12.25;;;;;24.31;52.33;100954.97;146619;603;46020;-70
2022/06/05 03:53:12;;;;;;;;;18.50;15.25;;;;;24.29;52.35;100958.50;146617;616;46012;-69
2022/06/05 03:56:04;;;;;;;;;18.25;17.25;;;;;24.30;51.92;100960.25;146618;651;46020;-69
2022/06/05 03:58:57;;;;;;;;;17.25;15.00;;;;;24.33;52.37;100942.59;146614;758;46016;-73
2022/06/05 04:01:48;;;;;;;;;20.00;18.25;;;;;24.42;53.62;100949.66;146617;610;46020;-73
2022/06/05 04:04:41;;;;;;;;;19.50;16.75;;;;;24.50;54.74;100947.91;146617;611;46013;-75
2022/06/05 04:07:33;;;;;;;;;18.25;17.25;;;;;24.62;54.89;100942.56;146619;627;46010;-76
2022/06/05 04:10:25;;;;;;;;;16.25;14.50;;;;;24.78;54.68;100942.50;146616;618;46015;-72
2022/06/05 04:13:17;;;;;;;;;15.25;14.75;;;;;24.99;54.36;100952.16;146618;601;46010;-73
2022/06/05 04:16:18;;;;;;;;;17.00;15.00;;;;;25.21;53.38;100943.22;146616;580;46016;-72
2022/06/05 04:19:10;;;;;;;;;17.50;16.50;;;;;25.44;54.47;100950.16;146621;588;46011;-73
2022/06/05 04:22:05;;;;;;;;;19.25;15.75;;;;;25.63;54.30;100948.28;146617;599;47012;-76
2022/06/05 04:24:59;;;;;;;;;18.25;17.75;;;;;25.84;53.89;100944.63;146622;586;46020;-77
2022/06/05 04:27:51;;;;;;;;;16.25;15.25;;;;;26.05;53.83;100946.22;146617;576;46016;-75
2022/06/05 04:30:43;;;;;;;;;18.00;16.50;;;;;26.23;52.97;100953.97;146624;686;46020;-75
2022/06/05 04:33:36;;;;;;;;;15.25;14.75;;;;;26.40;52.38;100951.19;146622;565;46012;-74
2022/06/05 04:36:28;;;;;;;;;13.50;13.50;;;;;26.58;51.77;100945.69;146618;640;46020;-72
2022/06/05 04:39:21;;;;;;;;;11.00;9.50;;;;;26.78;50.85;100949.91;146628;598;46012;-73
2022/06/05 04:42:13;;;;;;;;;15.75;15.75;;;;;26.94;50.20;100956.78;146624;564;46010;-73
2022/06/05 04:45:06;;;;;;;;;18.75;17.50;;;;;27.12;50.17;100953.88;146617;573;46016;-75
2022/06/05 04:47:57;;;;;;;;;21.75;18.25;;;;;27.26;50.11;100951.09;146620;570;46021;-74
2022/06/05 04:50:50;;;;;;;;;24.00;19.50;;;;;27.41;50.54;100941.97;146620;569;46016;-74
2022/06/05 04:53:41;;;;;;;;;17.00;15.75;;;;;27.56;50.11;100952.41;146623;681;46010;-77
2022/06/05 04:56:34;;;;;;;;;17.75;16.50;;;;;27.72;49.18;100955.72;146620;565;46017;-75
2022/06/05 04:59:26;;;;;;;;;25.00;22.00;;;;;27.88;49.02;100953.69;146619;585;45020;-74
2022/06/05 05:02:19;;;;;;;;;19.25;18.00;;;;;28.01;48.13;100957.94;146620;596;46016;-81
2022/06/05 05:05:12;;;;;;;;;20.50;19.25;;;;;28.16;47.38;100956.78;146622;572;46010;-76
2022/06/05 05:08:04;;;;;;;;;20.25;19.25;;;;;28.26;47.03;100958.41;146620;569;46916;-75
2022/06/05 05:10:56;;;;;;;;;25.25;22.50;;;;;28.36;46.02;100964.44;146621;602;46021;-71
2022/06/05 05:13:48;;;;;;;;;23.50;19.50;;;;;28.40;46.05;100963.50;146617;563;46016;-69
2022/06/05 05:16:40;;;;;;;;;22.50;19.00;;;;;28.47;45.01;100962.47;146623;570;45020;-70
2022/06/05 05:19:32;;;;;;;;;23.25;18.75;;;;;28.57;45.67;100957.84;146618;588;45016;-71
2022/06/05 05:22:25;;;;;;;;;29.00;24.50;;;;;28.69;44.48;100952.28;146619;586;46020;-68
2022/06/05 05:25:17;;;;;;;;;23.50;21.75;;;;;28.80;43.99;100951.19;146620;592;46014;-69
2022/06/05 05:28:10;;;;;;;;;28.50;24.75;;;;;28.89;43.21;100951.00;146618;588;46010;-69
2022/06/05 05:31:02;;;;;;;;;29.00;22.75;;;;;28.95;43.49;100949.06;146619;575;46012;-68
2022/06/05 05:33:56;;;;;;;;;27.75;25.00;;;;;29.00;44.53;100941.84;146620;579;46021;-71
2022/06/05 05:36:48;;;;;;;;;24.50;22.75;;;;;29.13;43.88;100942.50;146618;580;46016;-72
2022/06/05 05:42:50;;;;;;;;;18.50;15.00;;;;;29.45;43.67;100947.09;146618;577;46016;-74
2022/06/05 05:45:44;;;;;;;;;22.25;22.25;;;;;29.65;42.64;100951.09;146620;592;46020;-75
2022/06/05 05:48:35;;;;;;;;;26.25;23.25;;;;;29.80;42.83;100955.22;146615;610;45917;-76
2022/06/05 05:51:27;;;;;;;;;21.00;20.50;;;;;29.93;42.16;100952.19;146621;609;45020;-75
2022/06/05 05:54:20;;;;;;;;;22.25;21.75;;;;;30.04;41.60;100957.28;146618;661;46017;-75
2022/06/05 05:57:12;;;;;;;;;20.75;19.50;;;;;30.03;40.98;100946.59;146615;602;46020;-77
2022/06/05 06:00:04;;;;;;;;;19.75;19.00;;;;;30.03;42.03;100947.50;146616;579;46012;-79
2022/06/05 06:02:57;;;;;;;;;23.00;20.50;;;;;30.11;41.80;100949.97;146619;577;46011;-75
2022/06/05 06:05:49;;;;;;;;;23.25;21.25;;;;;30.21;42.00;100951.50;146611;641;48916;-78
2022/06/05 06:08:42;;;;;;;;;19.00;18.50;;;;;30.31;41.26;100950.34;146618;559;46021;-74
2022/06/05 06:11:34;;;;;;;;;22.50;21.50;;;;;30.41;41.39;100948.31;146618;565;46016;-73
2022/06/05 06:14:26;;;;;;;;;18.00;16.25;;;;;30.54;40.40;100951.53;146626;580;45020;-73
2022/06/05 06:17:19;;;;;;;;;18.75;17.25;;;;;30.66;40.34;100955.66;146617;618;45017;-83
2022/06/05 06:20:12;;;;;;;;;17.50;16.50;;;;;30.76;40.66;100955.34;146622;595;46020;-74
2022/06/05 06:23:05;;;;;;;;;20.50;16.75;;;;;30.95;40.70;100958.38;146618;566;46016;-81
2022/06/05 06:25:57;;;;;;;;;18.75;17.25;;;;;30.76;41.04;100896.44;146621;616;46021;-81
2022/06/05 06:28:49;;;;;;;;;20.25;17.25;;;;;31.35;40.32;100964.38;146616;575;46016;-81
2022/06/05 06:31:42;;;;;;;;;17.75;17.25;;;;;31.54;40.24;100965.53;146624;578;46010;-87
2022/06/05 06:34:35;;;;;;;;;17.75;17.25;;;;;31.71;39.40;100952.50;146620;649;46012;-83
2022/06/05 06:37:26;;;;;;;;;19.00;17.25;;;;;31.82;39.88;100945.87;146622;596;46021;-81
2022/06/05 06:40:19;;;;;;;;;20.25;18.25;;;;;31.91;39.21;100946.47;146623;592;45017;-77
2022/06/05 06:43:11;;;;;;;;;20.00;18.75;;;;;32.00;39.05;100936.38;146621;571;45020;-83
2022/06/05 06:46:04;;;;;;;;;20.00;17.00;;;;;32.03;38.34;100938.94;146617;636;46017;-83
2022/06/05 06:48:56;;;;;;;;;16.50;14.75;;;;;32.09;39.34;100934.25;146617;633;46020;-82
2022/06/05 06:51:49;;;;;;;;;18.50;17.50;;;;;32.20;39.54;100925.81;146618;602;46016;-82
2022/06/05 06:54:40;;;;;;;;;20.00;18.50;;;;;32.34;39.49;100922.66;146614;563;46917;-81
2022/06/05 06:57:33;;;;;;;;;18.75;17.75;;;;;32.49;38.50;100930.16;146620;666;46012;-77
2022/06/05 07:00:25;;;;;;;;;19.25;18.75;;;;;32.65;38.22;100914.38;146620;575;46020;-79
2022/06/05 07:03:17;;;;;;;;;18.00;15.75;;;;;32.71;38.00;100919.53;146623;599;46016;-79
2022/06/05 07:06:13;;;;;;;;;21.25;19.00;;;;;32.72;38.45;100915.03;146620;651;46010;-78
2022/06/05 07:09:05;;;;;;;;;24.25;22.00;;;;;32.64;38.30;100908.09;146619;614;46016;-77
2022/06/05 07:11:57;;;;;;;;;17.50;16.50;;;;;32.50;38.59;100907.75;146621;595;45027;-79
2022/06/05 07:14:49;;;;;;;;;20.50;19.75;;;;;32.42;39.84;100909.81;146616;573;46016;-79
2022/06/05 07:17:42;;;;;;;;;20.50;19.00;;;;;32.43;41.41;100911.56;146620;685;46021;-80
2022/06/05 07:20:45;;;;;;;;;17.75;17.00;;;;;32.47;41.36;100904.31;146620;589;46014;-79
2022/06/05 07:23:38;;;;;;;;;18.75;17.25;;;;;32.53;40.12;100904.09;146618;570;46020;-78
2022/06/05 07:26:34;;;;;;;;;18.75;18.50;;;;;32.58;39.18;100902.97;146617;580;46016;-80
2022/06/05 07:29:25;;;;;;;;;14.50;14.25;;;;;32.63;39.81;100901.00;146626;569;46010;-75
2022/06/05 07:32:18;;;;;;;;;18.50;18.00;;;;;32.60;41.46;100895.75;146622;555;46014;-78
2022/06/05 07:35:12;;;;;;;;;22.00;20.25;;;;;32.58;41.88;100894.91;146621;587;46020;-79
2022/06/05 07:38:04;;;;;;;;;20.75;20.00;;;;;32.61;41.33;100902.84;146616;580;46012;-78
2022/06/05 07:40:56;;;;;;;;;17.75;17.00;;;;;32.72;41.00;100896.22;146621;631;46020;-78
2022/06/05 07:43:48;;;;;;;;;14.75;14.00;;;;;32.83;40.34;100894.84;146616;574;46916;-79
2022/06/05 07:46:42;;;;;;;;;19.75;18.00;;;;;32.98;40.62;100895.25;146623;747;46011;-79
2022/06/05 07:49:34;;;;;;;;;18.25;18.25;;;;;33.15;40.52;100891.88;146618;584;46016;-79
2022/06/05 07:55:36;;;;;;;;;22.00;20.75;;;;;33.28;39.69;100888.66;146617;676;46016;-78
2022/06/05 07:58:28;;;;;;;;;21.25;18.50;;;;;33.35;39.88;100891.97;146620;653;46020;-79
2022/06/05 08:01:21;;;;;;;;;20.50;17.50;;;;;33.44;39.36;100888.91;146619;601;46014;-79
2022/06/05 08:04:12;;;;;;;;;21.75;17.00;;;;;32.62;38.56;100748.91;146628;582;46010;-80
2022/06/05 08:07:06;;;;;;;;;22.50;21.50;;;;;33.54;38.41;100894.78;146620;615;46012;-79
2022/06/05 08:09:58;;;;;;;;;17.50;17.50;;;;;33.66;38.67;100896.97;146621;611;46020;-79
2022/06/05 08:12:50;;;;;;;;;20.50;20.50;;;;;33.81;38.61;100887.38;146622;585;46012;-79
2022/06/05 08:15:49;;;;;;;;;19.50;18.00;;;;;33.97;38.09;100890.28;146620;582;45021;-78
2022/06/05 08:18:42;;;;;;;;;20.50;19.00;;;;;34.05;36.84;100889.97;146619;609;46016;-77
2022/06/05 08:21:33;;;;;;;;;20.00;19.00;;;;;34.12;38.19;100894.16;146618;645;46011;-78
2022/06/05 08:24:26;;;;;;;;;17.25;17.00;;;;;34.24;37.73;100885.53;146617;566;46016;-78
2022/06/05 08:27:23;;;;;;;;;18.00;17.75;;;;;34.31;37.23;100887.00;146621;573;46020;-78
2022/06/05 08:30:15;;;;;;;;;20.00;17.75;;;;;34.37;36.48;100892.09;146618;593;46016;-79
2022/06/05 08:33:09;;;;;;;;;16.00;15.75;;;;;34.41;36.87;100884.75;146624;566;46020;-78
2022/06/05 08:36:02;;;;;;;;;14.50;14.00;;;;;34.43;36.33;100886.44;146619;602;46016;-78
2022/06/05 08:42:47;;;;;;;;;18.75;16.00;;;;;34.41;36.65;100891.03;146619;696;46014;-78
2022/06/05 08:45:52;;;;;;;;;13.75;13.75;;;;;34.23;32.86;100889.16;146625;571;46010;-77
2022/06/05 08:49:02;;;;;;;;;16.00;14.75;;;;;34.06;35.90;100868.38;146621;638;46016;-79
2022/06/05 08:52:34;;;;;;;;;14.25;14.25;;;;;34.02;37.04;100883.78;146617;581;46021;-78
2022/06/05 08:55:38;;;;;;;;;13.75;13.75;;;;;33.86;34.87;100871.91;146636;574;45016;-78
2022/06/05 08:58:54;;;;;;;;;12.50;11.50;;;;;33.80;34.19;100873.06;146638;589;45020;-78
2022/06/05 09:02:02;;;;;;;;;16.00;12.25;;;;;33.72;35.90;100871.63;146633;602;46012;-78
2022/06/05 09:05:31;;;;;;;;;16.50;16.25;;;;;33.77;37.66;100873.19;146635;616;45014;-78
2022/06/05 09:08:27;;;;;;;;;15.25;14.00;;;;;34.07;34.95;100871.94;146637;673;45017;-78
2022/06/05 09:11:57;;;;;;;;;19.00;16.75;;;;;33.55;36.62;100746.88;146637;565;45020;-78
2022/06/05 09:15:25;;;;;;;;;15.00;14.50;;;;;34.41;36.08;100866.78;146635;664;45016;-79
2022/06/05 09:18:25;;;;;;;;;14.00;14.00;;;;;34.55;35.35;100858.13;146636;575;45020;-79
2022/06/05 09:21:27;;;;;;;;;15.75;14.75;;;;;34.61;35.11;100856.94;146636;631;45013;-78
2022/06/05 09:24:31;;;;;;;;;14.50;13.50;;;;;34.62;34.45;100856.88;146638;581;45010;-79
2022/06/05 09:27:44;;;;;;;;;14.25;13.00;;;;;34.64;35.53;100849.63;146637;644;45016;-79
2022/06/05 09:31:19;;;;;;;;;11.75;11.75;;;;;33.71;35.56;100679.84;146638;622;45010;-79
2022/06/05 09:34:17;;;;;;;;;14.50;14.25;;;;;34.08;33.89;100704.16;146635;614;45016;-77
2022/06/05 09:37:21;;;;;;;;;12.50;12.00;;;;;34.91;33.34;100846.53;146636;596;46021;-78
2022/06/05 09:40:28;;;;;;;;;13.50;13.50;;;;;34.69;33.68;100839.47;146639;573;44917;-77
2022/06/05 09:44:01;;;;;;;;;14.00;14.00;;;;;34.51;34.81;100834.06;146639;605;45010;-79
2022/06/05 09:47:45;;;;;;;;;14.00;12.50;;;;;34.30;32.67;100835.91;146634;570;46016;-78
2022/06/05 09:50:37;;;;;;;;;14.75;14.75;;;;;34.21;33.27;100835.41;146640;625;46010;-79
2022/06/05 09:53:42;;;;;;;;;13.50;13.50;;;;;34.31;34.75;100837.69;146624;579;46014;-78
2022/06/05 10:00:37;;;;;;;;;17.00;13.25;;;;;33.92;33.39;100828.59;146619;602;46014;-78
2022/06/05 10:03:42;;;;;;;;;16.50;14.75;;;;;33.68;35.38;100803.69;146623;597;45020;-77
2022/06/05 10:06:47;;;;;;;;;15.75;15.00;;;;;33.93;35.27;100827.66;146619;610;46012;-78
2022/06/05 10:09:46;;;;;;;;;14.75;13.75;;;;;33.82;33.17;100832.63;146621;589;46020;-77
2022/06/05 10:13:02;;;;;;;;;13.00;13.00;;;;;33.77;35.48;100823.87;146621;619;46012;-77
2022/06/05 10:16:39;;;;;;;;;12.00;12.00;;;;;33.65;34.36;100827.13;146625;613;45020;-77
2022/06/05 10:19:58;;;;;;;;;17.00;16.25;;;;;33.56;34.91;100823.03;146615;576;46016;-75
2022/06/05 10:22:57;;;;;;;;;18.50;18.00;;;;;33.51;34.69;100820.50;146622;606;46008;-79
2022/06/05 10:26:21;;;;;;;;;17.00;17.00;;;;;33.53;34.12;100807.88;146620;618;45030;-78
2022/06/05 10:29:43;;;;;;;;;21.75;20.25;;;;;32.72;34.73;100642.03;146619;600;46021;-78
2022/06/05 10:33:22;;;;;;;;;14.75;14.75;;;;;33.69;33.96;100809.91;146620;684;46016;-76
2022/06/05 10:36:32;;;;;;;;;25.75;24.00;;;;;33.66;35.13;100799.28;146622;583;46010;-77
2022/06/05 10:40:03;;;;;;;;;15.75;14.75;;;;;33.47;36.12;100801.88;146621;612;46012;-79
2022/06/05 10:43:14;;;;;;;;;18.25;17.00;;;;;33.26;37.23;100799.16;146622;682;45021;-77
2022/06/05 10:46:28;;;;;;;;;16.50;16.50;;;;;31.61;37.02;100538.22;146617;603;46016;-77
2022/06/05 10:49:49;;;;;;;;;16.25;16.00;;;;;33.18;37.83;100793.25;146622;636;46021;-77
2022/06/05 10:52:57;;;;;;;;;17.50;15.00;;;;;33.18;37.76;100793.25;146619;565;46012;-77
2022/06/05 10:56:27;;;;;;;;;18.75;18.75;;;;;32.43;38.13;100657.53;146622;573;46010;-77
2022/06/05 11:00:03;;;;;;;;;18.50;17.00;;;;;33.30;38.60;100787.34;146618;566;46016;-77
2022/06/05 11:03:33;;;;;;;;;17.50;15.50;;;;;33.41;38.55;100791.38;146624;618;46010;-78
2022/06/05 11:07:25;;;;;;;;;21.25;18.00;;;;;33.55;38.18;100776.44;146618;680;46916;-78
2022/06/05 11:15:08;;;;;;;;;16.50;16.00;;;;;33.46;37.57;100668.38;146621;564;46017;-79
2022/06/05 11:18:26;;;;;;;;;18.75;18.50;;;;;34.21;37.10;100764.56;146623;599;46010;-79
2022/06/05 11:21:26;;;;;;;;;16.50;16.00;;;;;34.34;36.31;100756.78;146616;625;46917;-79
2022/06/05 11:24:29;;;;;;;;;18.25;16.00;;;;;33.64;36.72;100631.78;146617;563;46020;-80
2022/06/05 11:27:55;;;;;;;;;22.50;20.75;;;;;34.45;36.63;100759.81;146619;598;45017;-79
2022/06/05 11:31:14;;;;;;;;;14.25;13.75;;;;;34.48;36.23;100751.59;146621;637;46010;-81
2022/06/05 11:34:54;;;;;;;;;18.00;16.75;;;;;34.17;36.48;100706.44;146618;609;46017;-79
2022/06/05 11:38:35;;;;;;;;;22.00;21.00;;;;;34.40;36.12;100748.44;146622;576;46010;-80
2022/06/05 11:42:07;;;;;;;;;17.75;17.25;;;;;33.56;35.62;100627.63;146622;674;46017;-79
2022/06/05 11:45:30;;;;;;;;;18.00;15.50;;;;;34.29;36.83;100740.84;146620;613;46020;-82
2022/06/05 11:48:45;;;;;;;;;19.75;18.75;;;;;34.28;37.33;100739.09;146620;587;46914;-80
2022/06/05 11:52:05;;;;;;;;;23.25;21.75;;;;;34.24;35.82;100740.22;146621;593;46021;-79
2022/06/05 11:55:33;;;;;;;;;20.00;18.50;;;;;33.15;36.22;100580.22;146636;611;45016;-80
2022/06/05 11:58:41;;;;;;;;;21.25;20.00;;;;;33.93;36.28;100746.97;146639;647;44049;-79
2022/06/05 12:01:44;;;;;;;;;14.75;14.00;;;;;33.69;37.59;100740.88;146638;595;45012;-80
2022/06/05 12:05:08;;;;;;;;;19.25;17.75;;;;;32.73;37.83;100587.38;146639;618;45029;-80
2022/06/05 12:08:10;;;;;;;;;18.75;17.50;;;;;33.52;37.80;100724.59;146637;609;45016;-79
2022/06/05 12:11:10;;;;;;;;;17.50;17.00;;;;;33.54;37.55;100728.97;146640;611;45017;-80
2022/06/05 12:14:28;;;;;;;;;20.50;18.50;;;;;33.48;38.12;100717.59;146632;575;45016;-78
2022/06/05 12:17:45;;;;;;;;;15.75;14.50;;;;;32.83;37.74;100610.19;146641;590;45010;-78
2022/06/05 12:20:53;;;;;;;;;21.00;19.50;;;;;33.50;37.06;100719.31;146633;586;45914;-78
2022/06/05 12:24:20;;;;;;;;;19.00;19.00;;;;;33.54;37.95;100715.53;146632;593;45010;-72
2022/06/05 12:27:16;;;;;;;;;21.00;19.25;;;;;33.56;37.18;100710.97;146635;592;45014;-80
2022/06/05 12:30:18;;;;;;;;;17.00;17.00;;;;;33.65;36.79;100709.69;146637;566;46020;-77
2022/06/05 12:33:59;;;;;;;;;17.25;16.50;;;;;33.35;37.00;100655.44;146633;608;45016;-77
2022/06/05 12:37:25;;;;;;;;;18.25;18.25;;;;;32.71;37.52;100577.62;146639;634;44915;-76
2022/06/05 12:40:27;;;;;;;;;20.50;18.00;;;;;33.37;37.53;100710.00;146634;570;46012;-77
2022/06/05 12:43:44;;;;;;;;;19.00;18.75;;;;;33.35;37.66;100698.44;146635;633;45010;-75
2022/06/05 12:46:54;;;;;;;;;21.00;19.75;;;;;33.40;37.93;100693.75;146634;590;45016;-77
2022/06/05 12:50:19;;;;;;;;;20.50;18.50;;;;;33.47;38.04;100691.66;146633;657;45021;-75
2022/06/05 12:53:29;;;;;;;;;22.50;21.00;;;;;33.47;40.94;100703.28;146624;615;46016;-77
2022/06/05 12:56:50;;;;;;;;;24.25;22.00;;;;;33.41;40.83;100694.63;146620;600;46021;-73
2022/06/05 13:00:30;;;;;;;;;22.00;22.00;;;;;33.42;39.43;100675.72;146618;564;46916;-74
2022/06/05 13:03:33;;;;;;;;;20.00;20.00;;;;;33.61;40.19;100683.00;146619;623;46021;-77
2022/06/05 13:07:01;;;;;;;;;21.50;19.50;;;;;33.64;39.91;100688.22;146619;574;46014;-71
2022/06/05 13:10:02;;;;;;;;;18.00;17.00;;;;;33.52;39.27;100679.81;146624;614;45022;-82
2022/06/05 13:13:32;;;;;;;;;22.00;19.75;;;;;33.18;39.80;100623.97;146619;598;46017;-75
2022/06/05 13:16:48;;;;;;;;;20.25;20.25;;;;;33.50;39.46;100672.75;146616;716;45020;-71
2022/06/05 13:19:48;;;;;;;;;23.50;21.50;;;;;33.55;39.63;100679.66;146616;564;46012;-79
2022/06/05 13:23:17;;;;;;;;;22.00;19.00;;;;;33.52;39.01;100670.84;146619;590;46020;-79
2022/06/05 13:26:52;;;;;;;;;22.00;22.00;;;;;33.41;39.45;100667.75;146618;724;46017;-76
2022/06/05 13:30:35;;;;;;;;;21.00;20.75;;;;;32.48;39.52;100512.41;146622;706;46010;-74
2022/06/05 13:33:58;;;;;;;;;17.25;17.25;;;;;33.39;39.88;100666.94;146618;611;46916;-84
2022/06/05 13:37:01;;;;;;;;;21.50;21.50;;;;;33.41;39.55;100662.38;146625;674;46020;-79
2022/06/05 13:40:49;;;;;;;;;19.75;19.00;;;;;33.49;39.63;100666.47;146619;601;46017;-82
2022/06/05 13:43:49;;;;;;;;;22.50;22.00;;;;;33.55;40.04;100671.59;146623;583;46020;-82
2022/06/05 13:47:20;;;;;;;;;18.25;17.25;;;;;33.63;39.21;100673.94;146620;596;46012;-77
2022/06/05 13:50:52;;;;;;;;;21.00;20.25;;;;;33.72;39.71;100654.69;146618;648;46020;-82
2022/06/05 13:53:47;;;;;;;;;20.75;20.50;;;;;33.86;39.80;100643.28;146619;604;46016;-72
2022/06/05 13:57:00;;;;;;;;;23.00;22.25;;;;;34.05;38.84;100642.44;146621;591;46010;-82
2022/06/05 13:59:58;;;;;;;;;19.50;19.25;;;;;34.21;38.74;100638.09;146617;586;46016;-79
2022/06/05 14:03:12;;;;;;;;;22.25;21.00;;;;;33.44;38.54;100498.28;146619;572;46021;-79
2022/06/05 14:06:09;;;;;;;;;22.50;22.25;;;;;34.30;40.19;100642.12;146620;644;46012;-80
2022/06/05 14:09:09;;;;;;;;;21.00;19.00;;;;;34.36;40.50;100637.31;146618;589;46020;-80
2022/06/05 14:12:01;;;;;;;;;14.00;13.00;;;;;34.42;40.86;100630.75;146619;601;46017;-83
2022/06/05 14:14:53;;;;;;;;;21.25;19.75;;;;;34.31;40.99;100627.75;146619;765;46010;-83
2022/06/05 14:17:49;;;;;;;;;21.25;19.75;;;;;34.13;40.95;100630.37;146618;579;46012;-81
2022/06/05 14:20:41;;;;;;;;;21.00;20.25;;;;;33.96;41.22;100631.16;146618;604;46020;-81